sensor_id;sensor_type;location;lat;lon;timestamp;temperature;humidity
25436;DHT22;13363;52.772;-3.890;2022-07-04T00:00:40;14.90;99.90
25436;DHT22;13363;52.772;-3.890;2022-07-04T00:03:06;15.00;99.90
25436;DHT22;13363;52.772;-3.890;2022-07-04T00:05:32;15.00;99.90
25436;DHT22;13363;52.772;-3.890;2022-07-04T00:07:58;15.00;99.90
25436;DHT22;13363;52.772;-3.890;2022-07-04T00:10:24;15.00;99.90
25436;DHT22;13363;52.772;-3.890;2022-07-04T00:12:50;15.10;99.90
25436;DHT22;13363;52.772;-3.890;2022-07-04T00:15:16;15.10;99.90
25436;DHT22;13363;52.772;-3.890;2022-07-04T00:17:45;15.10;99.90
25436;DHT22;13363;52.772;-3.890;2022-07-04T00:20:11;15.10;99.90
25436;DHT22;13363;52.772;-3.890;2022-07-04T00:22:37;15.00;99.90
25436;DHT22;13363;52.772;-3.890;2022-07-04T00:25:04;15.10;99.90
25436;DHT22;13363;52.772;-3.890;2022-07-04T00:27:30;15.10;99.90
25436;DHT22;13363;52.772;-3.890;2022-07-04T00:29:56;15.10;99.90
25436;DHT22;13363;52.772;-3.890;2022-07-04T00:32:22;15.00;99.90
25436;DHT22;13363;52.772;-3.890;2022-07-04T00:34:47;15.00;99.90
25436;DHT22;13363;52.772;-3.890;2022-07-04T00:37:14;15.10;99.90
25436;DHT22;13363;52.772;-3.890;2022-07-04T00:39:40;15.10;99.90
25436;DHT22;13363;52.772;-3.890;2022-07-04T00:42:06;15.10;99.90
25436;DHT22;13363;52.772;-3.890;2022-07-04T00:44:32;15.10;99.90
25436;DHT22;13363;52.772;-3.890;2022-07-04T00:47:02;15.10;99.90
25436;DHT22;13363;52.772;-3.890;2022-07-04T00:49:28;15.10;99.90
25436;DHT22;13363;52.772;-3.890;2022-07-04T00:51:54;15.10;99.90
25436;DHT22;13363;52.772;-3.890;2022-07-04T00:54:25;15.10;99.90
25436;DHT22;13363;52.772;-3.890;2022-07-04T00:56:53;15.20;99.90
25436;DHT22;13363;52.772;-3.890;2022-07-04T00:59:20;15.30;99.90
25436;DHT22;13363;52.772;-3.890;2022-07-04T01:01:46;15.40;99.90
25436;DHT22;13363;52.772;-3.890;2022-07-04T01:04:11;15.40;99.90
25436;DHT22;13363;52.772;-3.890;2022-07-04T01:06:37;15.40;99.90
25436;DHT22;13363;52.772;-3.890;2022-07-04T01:09:04;15.30;99.90
25436;DHT22;13363;52.772;-3.890;2022-07-04T01:11:30;15.30;99.90
25436;DHT22;13363;52.772;-3.890;2022-07-04T01:13:57;15.20;99.90
25436;DHT22;13363;52.772;-3.890;2022-07-04T01:16:27;15.20;99.90
25436;DHT22;13363;52.772;-3.890;2022-07-04T01:18:54;15.20;99.90
25436;DHT22;13363;52.772;-3.890;2022-07-04T01:21:20;15.20;99.90
25436;DHT22;13363;52.772;-3.890;2022-07-04T01:23:46;15.20;99.90
25436;DHT22;13363;52.772;-3.890;2022-07-04T01:26:13;15.10;99.90
25436;DHT22;13363;52.772;-3.890;2022-07-04T01:28:39;15.10;99.90
25436;DHT22;13363;52.772;-3.890;2022-07-04T01:31:05;15.10;99.90
25436;DHT22;13363;52.772;-3.890;2022-07-04T01:33:31;15.10;99.90
25436;DHT22;13363;52.772;-3.890;2022-07-04T01:35:58;15.00;99.90
25436;DHT22;13363;52.772;-3.890;2022-07-04T01:38:24;15.10;99.90
25436;DHT22;13363;52.772;-3.890;2022-07-04T01:40:50;15.10;99.90
25436;DHT22;13363;52.772;-3.890;2022-07-04T01:43:16;15.20;99.90
25436;DHT22;13363;52.772;-3.890;2022-07-04T01:45:41;15.20;99.90
25436;DHT22;13363;52.772;-3.890;2022-07-04T01:48:09;15.10;99.90
25436;DHT22;13363;52.772;-3.890;2022-07-04T01:50:35;15.00;99.90
25436;DHT22;13363;52.772;-3.890;2022-07-04T01:53:02;15.00;99.90
25436;DHT22;13363;52.772;-3.890;2022-07-04T01:55:28;14.90;99.90
25436;DHT22;13363;52.772;-3.890;2022-07-04T01:57:54;14.90;99.90
25436;DHT22;13363;52.772;-3.890;2022-07-04T02:00:21;15.00;99.90
25436;DHT22;13363;52.772;-3.890;2022-07-04T02:03:05;15.00;99.90
25436;DHT22;13363;52.772;-3.890;2022-07-04T02:05:31;15.00;99.90
25436;DHT22;13363;52.772;-3.890;2022-07-04T02:07:57;15.00;99.90
25436;DHT22;13363;52.772;-3.890;2022-07-04T02:10:23;15.00;99.90
25436;DHT22;13363;52.772;-3.890;2022-07-04T02:12:48;15.00;99.90
25436;DHT22;13363;52.772;-3.890;2022-07-04T02:15:28;15.00;99.90
25436;DHT22;13363;52.772;-3.890;2022-07-04T02:17:54;15.00;99.90
25436;DHT22;13363;52.772;-3.890;2022-07-04T02:20:20;15.00;99.90
25436;DHT22;13363;52.772;-3.890;2022-07-04T02:22:46;15.00;99.90
25436;DHT22;13363;52.772;-3.890;2022-07-04T02:25:12;15.00;99.90
25436;DHT22;13363;52.772;-3.890;2022-07-04T02:27:38;15.00;99.90
25436;DHT22;13363;52.772;-3.890;2022-07-04T02:30:05;15.00;99.90
25436;DHT22;13363;52.772;-3.890;2022-07-04T02:32:31;15.00;99.90
25436;DHT22;13363;52.772;-3.890;2022-07-04T02:34:57;15.10;99.90
25436;DHT22;13363;52.772;-3.890;2022-07-04T02:37:23;15.10;99.90
25436;DHT22;13363;52.772;-3.890;2022-07-04T02:39:49;15.10;99.90
25436;DHT22;13363;52.772;-3.890;2022-07-04T02:42:15;15.10;99.90
25436;DHT22;13363;52.772;-3.890;2022-07-04T02:44:41;15.10;99.90
25436;DHT22;13363;52.772;-3.890;2022-07-04T02:47:08;15.00;99.90
25436;DHT22;13363;52.772;-3.890;2022-07-04T02:49:34;15.00;99.90
25436;DHT22;13363;52.772;-3.890;2022-07-04T02:52:00;15.00;99.90
25436;DHT22;13363;52.772;-3.890;2022-07-04T02:54:26;15.10;99.90
25436;DHT22;13363;52.772;-3.890;2022-07-04T02:56:52;15.00;99.90
25436;DHT22;13363;52.772;-3.890;2022-07-04T02:59:18;15.00;99.90
25436;DHT22;13363;52.772;-3.890;2022-07-04T03:01:43;15.00;99.90
25436;DHT22;13363;52.772;-3.890;2022-07-04T03:04:09;15.00;99.90
25436;DHT22;13363;52.772;-3.890;2022-07-04T03:06:35;15.00;99.90
25436;DHT22;13363;52.772;-3.890;2022-07-04T03:09:01;14.90;99.90
25436;DHT22;13363;52.772;-3.890;2022-07-04T03:11:27;15.00;99.90
25436;DHT22;13363;52.772;-3.890;2022-07-04T03:13:53;15.00;99.90
25436;DHT22;13363;52.772;-3.890;2022-07-04T03:16:18;15.00;99.90
25436;DHT22;13363;52.772;-3.890;2022-07-04T03:18:44;14.90;99.90
25436;DHT22;13363;52.772;-3.890;2022-07-04T03:21:10;14.90;99.90
25436;DHT22;13363;52.772;-3.890;2022-07-04T03:23:36;14.80;99.90
25436;DHT22;13363;52.772;-3.890;2022-07-04T03:26:02;14.90;99.90
25436;DHT22;13363;52.772;-3.890;2022-07-04T03:28:28;14.90;99.90
25436;DHT22;13363;52.772;-3.890;2022-07-04T03:30:54;15.10;99.90
25436;DHT22;13363;52.772;-3.890;2022-07-04T03:33:20;14.90;99.90
25436;DHT22;13363;52.772;-3.890;2022-07-04T03:35:46;14.80;99.90
25436;DHT22;13363;52.772;-3.890;2022-07-04T03:38:12;14.80;99.90
25436;DHT22;13363;52.772;-3.890;2022-07-04T03:40:38;14.90;99.90
25436;DHT22;13363;52.772;-3.890;2022-07-04T03:43:04;14.90;99.90
25436;DHT22;13363;52.772;-3.890;2022-07-04T03:45:33;14.90;99.90
25436;DHT22;13363;52.772;-3.890;2022-07-04T03:48:00;14.90;99.90
25436;DHT22;13363;52.772;-3.890;2022-07-04T03:50:28;14.90;99.90
25436;DHT22;13363;52.772;-3.890;2022-07-04T03:52:54;14.90;99.90
25436;DHT22;13363;52.772;-3.890;2022-07-04T03:55:20;14.80;99.90
25436;DHT22;13363;52.772;-3.890;2022-07-04T03:57:46;14.80;99.90
25436;DHT22;13363;52.772;-3.890;2022-07-04T04:00:13;14.80;99.90
25436;DHT22;13363;52.772;-3.890;2022-07-04T04:02:39;14.70;99.90
25436;DHT22;13363;52.772;-3.890;2022-07-04T04:05:05;14.70;99.90
25436;DHT22;13363;52.772;-3.890;2022-07-04T04:07:50;14.70;99.90
25436;DHT22;13363;52.772;-3.890;2022-07-04T04:10:16;14.70;99.90
25436;DHT22;13363;52.772;-3.890;2022-07-04T04:12:42;14.70;99.90
25436;DHT22;13363;52.772;-3.890;2022-07-04T04:15:08;14.70;99.90
25436;DHT22;13363;52.772;-3.890;2022-07-04T04:17:34;14.70;99.90
25436;DHT22;13363;52.772;-3.890;2022-07-04T04:20:00;14.80;99.90
25436;DHT22;13363;52.772;-3.890;2022-07-04T04:22:28;14.70;99.90
25436;DHT22;13363;52.772;-3.890;2022-07-04T04:24:54;14.70;99.90
25436;DHT22;13363;52.772;-3.890;2022-07-04T04:27:20;14.80;99.90
25436;DHT22;13363;52.772;-3.890;2022-07-04T04:29:46;14.80;99.90
25436;DHT22;13363;52.772;-3.890;2022-07-04T04:32:12;14.80;99.90
25436;DHT22;13363;52.772;-3.890;2022-07-04T04:34:38;14.80;99.90
25436;DHT22;13363;52.772;-3.890;2022-07-04T04:37:04;14.70;99.90
25436;DHT22;13363;52.772;-3.890;2022-07-04T04:39:30;14.60;99.90
25436;DHT22;13363;52.772;-3.890;2022-07-04T04:41:55;14.60;99.90
25436;DHT22;13363;52.772;-3.890;2022-07-04T04:44:21;14.60;99.90
25436;DHT22;13363;52.772;-3.890;2022-07-04T04:46:47;14.60;99.90
25436;DHT22;13363;52.772;-3.890;2022-07-04T04:49:13;14.60;99.90
25436;DHT22;13363;52.772;-3.890;2022-07-04T04:51:39;14.50;99.90
25436;DHT22;13363;52.772;-3.890;2022-07-04T04:54:06;14.50;99.90
25436;DHT22;13363;52.772;-3.890;2022-07-04T04:56:32;14.50;99.90
25436;DHT22;13363;52.772;-3.890;2022-07-04T04:58:57;14.50;99.90
25436;DHT22;13363;52.772;-3.890;2022-07-04T05:01:23;14.50;99.90
25436;DHT22;13363;52.772;-3.890;2022-07-04T05:03:49;14.50;99.90
25436;DHT22;13363;52.772;-3.890;2022-07-04T05:06:15;14.50;99.90
25436;DHT22;13363;52.772;-3.890;2022-07-04T05:08:41;14.50;99.90
25436;DHT22;13363;52.772;-3.890;2022-07-04T05:11:07;14.50;99.90
25436;DHT22;13363;52.772;-3.890;2022-07-04T05:13:33;14.50;99.90
25436;DHT22;13363;52.772;-3.890;2022-07-04T05:15:59;14.50;99.90
25436;DHT22;13363;52.772;-3.890;2022-07-04T05:18:24;14.50;99.90
25436;DHT22;13363;52.772;-3.890;2022-07-04T05:20:50;14.60;99.90
25436;DHT22;13363;52.772;-3.890;2022-07-04T05:23:16;14.60;99.90
25436;DHT22;13363;52.772;-3.890;2022-07-04T05:25:42;14.60;99.90
25436;DHT22;13363;52.772;-3.890;2022-07-04T05:28:08;14.70;99.90
25436;DHT22;13363;52.772;-3.890;2022-07-04T05:30:33;14.80;99.90
25436;DHT22;13363;52.772;-3.890;2022-07-04T05:32:59;14.80;99.90
25436;DHT22;13363;52.772;-3.890;2022-07-04T05:35:27;14.70;99.90
25436;DHT22;13363;52.772;-3.890;2022-07-04T05:37:53;14.70;99.90
25436;DHT22;13363;52.772;-3.890;2022-07-04T05:40:19;14.70;99.90
25436;DHT22;13363;52.772;-3.890;2022-07-04T05:42:47;14.80;99.90
25436;DHT22;13363;52.772;-3.890;2022-07-04T05:45:14;14.80;99.90
25436;DHT22;13363;52.772;-3.890;2022-07-04T05:47:40;14.90;99.90
25436;DHT22;13363;52.772;-3.890;2022-07-04T05:50:06;14.90;99.90
25436;DHT22;13363;52.772;-3.890;2022-07-04T05:52:32;15.00;99.90
25436;DHT22;13363;52.772;-3.890;2022-07-04T05:54:58;15.00;99.90
25436;DHT22;13363;52.772;-3.890;2022-07-04T05:57:23;15.00;99.90
25436;DHT22;13363;52.772;-3.890;2022-07-04T05:59:49;15.00;99.90
25436;DHT22;13363;52.772;-3.890;2022-07-04T06:02:15;15.00;99.90
25436;DHT22;13363;52.772;-3.890;2022-07-04T06:04:41;15.10;99.90
25436;DHT22;13363;52.772;-3.890;2022-07-04T06:07:09;15.20;99.90
25436;DHT22;13363;52.772;-3.890;2022-07-04T06:09:35;15.10;99.90
25436;DHT22;13363;52.772;-3.890;2022-07-04T06:12:01;15.10;99.90
25436;DHT22;13363;52.772;-3.890;2022-07-04T06:14:26;15.10;99.90
25436;DHT22;13363;52.772;-3.890;2022-07-04T06:16:52;15.10;99.90
25436;DHT22;13363;52.772;-3.890;2022-07-04T06:19:18;15.20;99.90
25436;DHT22;13363;52.772;-3.890;2022-07-04T06:21:44;15.10;99.90
25436;DHT22;13363;52.772;-3.890;2022-07-04T06:24:10;15.10;99.90
25436;DHT22;13363;52.772;-3.890;2022-07-04T06:26:36;15.20;99.90
25436;DHT22;13363;52.772;-3.890;2022-07-04T06:29:01;15.20;99.90
25436;DHT22;13363;52.772;-3.890;2022-07-04T06:31:27;15.30;99.90
25436;DHT22;13363;52.772;-3.890;2022-07-04T06:33:53;15.30;99.90
25436;DHT22;13363;52.772;-3.890;2022-07-04T06:36:37;15.30;99.90
25436;DHT22;13363;52.772;-3.890;2022-07-04T06:39:03;15.10;99.90
25436;DHT22;13363;52.772;-3.890;2022-07-04T06:41:29;15.00;99.90
25436;DHT22;13363;52.772;-3.890;2022-07-04T06:43:55;15.00;99.90
25436;DHT22;13363;52.772;-3.890;2022-07-04T06:46:20;14.80;99.90
25436;DHT22;13363;52.772;-3.890;2022-07-04T06:48:46;14.80;99.90
25436;DHT22;13363;52.772;-3.890;2022-07-04T06:51:12;14.80;99.90
25436;DHT22;13363;52.772;-3.890;2022-07-04T06:53:40;14.90;99.90
25436;DHT22;13363;52.772;-3.890;2022-07-04T06:56:07;14.90;99.90
25436;DHT22;13363;52.772;-3.890;2022-07-04T06:58:34;14.90;99.90
25436;DHT22;13363;52.772;-3.890;2022-07-04T07:01:00;15.00;99.90
25436;DHT22;13363;52.772;-3.890;2022-07-04T07:03:25;15.00;99.90
25436;DHT22;13363;52.772;-3.890;2022-07-04T07:05:53;15.10;99.90
25436;DHT22;13363;52.772;-3.890;2022-07-04T07:08:19;15.10;99.90
25436;DHT22;13363;52.772;-3.890;2022-07-04T07:10:44;15.20;99.90
25436;DHT22;13363;52.772;-3.890;2022-07-04T07:13:10;15.20;99.90
25436;DHT22;13363;52.772;-3.890;2022-07-04T07:15:36;15.30;99.90
25436;DHT22;13363;52.772;-3.890;2022-07-04T07:18:03;15.30;99.90
25436;DHT22;13363;52.772;-3.890;2022-07-04T07:20:29;15.20;99.90
25436;DHT22;13363;52.772;-3.890;2022-07-04T07:22:56;15.30;99.90
25436;DHT22;13363;52.772;-3.890;2022-07-04T07:25:21;15.30;99.90
25436;DHT22;13363;52.772;-3.890;2022-07-04T07:27:47;15.30;99.90
25436;DHT22;13363;52.772;-3.890;2022-07-04T07:30:13;15.40;99.90
25436;DHT22;13363;52.772;-3.890;2022-07-04T07:32:39;15.60;99.90
25436;DHT22;13363;52.772;-3.890;2022-07-04T07:35:05;15.60;99.90
25436;DHT22;13363;52.772;-3.890;2022-07-04T07:37:31;15.70;99.90
25436;DHT22;13363;52.772;-3.890;2022-07-04T07:39:57;15.90;99.90
25436;DHT22;13363;52.772;-3.890;2022-07-04T07:42:24;15.80;99.90
25436;DHT22;13363;52.772;-3.890;2022-07-04T07:44:50;15.90;99.90
25436;DHT22;13363;52.772;-3.890;2022-07-04T07:47:16;16.00;99.90
25436;DHT22;13363;52.772;-3.890;2022-07-04T07:49:42;16.20;99.90
25436;DHT22;13363;52.772;-3.890;2022-07-04T07:52:08;16.00;99.90
25436;DHT22;13363;52.772;-3.890;2022-07-04T07:54:34;16.10;99.90
25436;DHT22;13363;52.772;-3.890;2022-07-04T07:57:00;16.20;99.90
25436;DHT22;13363;52.772;-3.890;2022-07-04T07:59:26;16.40;99.90
25436;DHT22;13363;52.772;-3.890;2022-07-04T08:01:52;17.00;99.90
25436;DHT22;13363;52.772;-3.890;2022-07-04T08:04:18;16.80;99.90
25436;DHT22;13363;52.772;-3.890;2022-07-04T08:07:04;16.30;99.90
25436;DHT22;13363;52.772;-3.890;2022-07-04T08:09:32;16.30;99.90
25436;DHT22;13363;52.772;-3.890;2022-07-04T08:11:58;16.40;99.90
25436;DHT22;13363;52.772;-3.890;2022-07-04T08:14:25;16.30;99.90
25436;DHT22;13363;52.772;-3.890;2022-07-04T08:16:51;16.10;99.90
25436;DHT22;13363;52.772;-3.890;2022-07-04T08:19:17;15.90;99.90
25436;DHT22;13363;52.772;-3.890;2022-07-04T08:21:43;15.90;99.90
25436;DHT22;13363;52.772;-3.890;2022-07-04T08:24:13;16.00;99.90
25436;DHT22;13363;52.772;-3.890;2022-07-04T08:26:39;16.10;99.90
25436;DHT22;13363;52.772;-3.890;2022-07-04T08:29:18;16.00;99.90
25436;DHT22;13363;52.772;-3.890;2022-07-04T08:31:44;16.00;99.90
25436;DHT22;13363;52.772;-3.890;2022-07-04T08:34:10;16.00;99.90
25436;DHT22;13363;52.772;-3.890;2022-07-04T08:36:36;15.90;99.90
25436;DHT22;13363;52.772;-3.890;2022-07-04T08:39:02;15.70;99.90
25436;DHT22;13363;52.772;-3.890;2022-07-04T08:41:34;15.70;99.90
25436;DHT22;13363;52.772;-3.890;2022-07-04T08:44:01;15.70;99.90
25436;DHT22;13363;52.772;-3.890;2022-07-04T08:46:28;15.80;99.90
25436;DHT22;13363;52.772;-3.890;2022-07-04T08:48:55;16.00;99.90
25436;DHT22;13363;52.772;-3.890;2022-07-04T08:52:03;15.90;99.90
25436;DHT22;13363;52.772;-3.890;2022-07-04T08:54:31;15.80;99.90
25436;DHT22;13363;52.772;-3.890;2022-07-04T08:57:19;15.90;99.90
25436;DHT22;13363;52.772;-3.890;2022-07-04T09:00:05;15.90;99.90
25436;DHT22;13363;52.772;-3.890;2022-07-04T09:02:34;15.90;99.90
25436;DHT22;13363;52.772;-3.890;2022-07-04T09:05:01;15.80;99.90
25436;DHT22;13363;52.772;-3.890;2022-07-04T09:07:28;15.90;99.90
25436;DHT22;13363;52.772;-3.890;2022-07-04T09:09:56;16.00;99.90
25436;DHT22;13363;52.772;-3.890;2022-07-04T09:12:26;16.10;99.90
25436;DHT22;13363;52.772;-3.890;2022-07-04T09:14:54;16.10;99.90
25436;DHT22;13363;52.772;-3.890;2022-07-04T09:17:23;16.30;99.90
25436;DHT22;13363;52.772;-3.890;2022-07-04T09:22:48;16.40;99.90
25436;DHT22;13363;52.772;-3.890;2022-07-04T09:25:15;16.70;99.90
25436;DHT22;13363;52.772;-3.890;2022-07-04T09:27:43;16.60;99.90
25436;DHT22;13363;52.772;-3.890;2022-07-04T09:30:11;16.70;99.90
25436;DHT22;13363;52.772;-3.890;2022-07-04T09:32:46;16.90;99.90
25436;DHT22;13363;52.772;-3.890;2022-07-04T09:35:20;17.00;99.90
25436;DHT22;13363;52.772;-3.890;2022-07-04T09:37:51;17.30;99.90
25436;DHT22;13363;52.772;-3.890;2022-07-04T09:40:37;17.20;99.90
25436;DHT22;13363;52.772;-3.890;2022-07-04T09:43:24;16.80;99.90
25436;DHT22;13363;52.772;-3.890;2022-07-04T09:45:58;16.70;99.90
25436;DHT22;13363;52.772;-3.890;2022-07-04T09:48:25;16.70;99.90
25436;DHT22;13363;52.772;-3.890;2022-07-04T09:50:51;16.70;99.90
25436;DHT22;13363;52.772;-3.890;2022-07-04T09:53:18;16.50;99.90
25436;DHT22;13363;52.772;-3.890;2022-07-04T09:55:43;16.20;99.90
25436;DHT22;13363;52.772;-3.890;2022-07-04T09:58:15;16.20;99.90
25436;DHT22;13363;52.772;-3.890;2022-07-04T10:00:42;16.40;99.90
25436;DHT22;13363;52.772;-3.890;2022-07-04T10:03:23;16.30;99.90
25436;DHT22;13363;52.772;-3.890;2022-07-04T10:06:12;16.30;99.90
25436;DHT22;13363;52.772;-3.890;2022-07-04T10:08:43;16.30;99.90
25436;DHT22;13363;52.772;-3.890;2022-07-04T10:11:09;16.40;99.90
25436;DHT22;13363;52.772;-3.890;2022-07-04T10:13:36;16.50;99.90
25436;DHT22;13363;52.772;-3.890;2022-07-04T10:16:03;16.50;99.90
25436;DHT22;13363;52.772;-3.890;2022-07-04T10:18:29;16.30;99.90
25436;DHT22;13363;52.772;-3.890;2022-07-04T10:20:56;16.30;99.90
25436;DHT22;13363;52.772;-3.890;2022-07-04T10:23:23;16.30;99.90
25436;DHT22;13363;52.772;-3.890;2022-07-04T10:25:51;16.40;99.90
25436;DHT22;13363;52.772;-3.890;2022-07-04T10:28:18;16.40;99.90
25436;DHT22;13363;52.772;-3.890;2022-07-04T10:30:50;16.20;99.90
25436;DHT22;13363;52.772;-3.890;2022-07-04T10:33:20;16.10;99.90
25436;DHT22;13363;52.772;-3.890;2022-07-04T10:38:24;16.20;99.90
25436;DHT22;13363;52.772;-3.890;2022-07-04T10:40:55;16.30;99.90
25436;DHT22;13363;52.772;-3.890;2022-07-04T10:48:59;16.50;99.90
25436;DHT22;13363;52.772;-3.890;2022-07-04T10:54:12;16.20;99.90
25436;DHT22;13363;52.772;-3.890;2022-07-04T11:00:03;16.00;99.90
25436;DHT22;13363;52.772;-3.890;2022-07-04T11:02:34;16.10;99.90
25436;DHT22;13363;52.772;-3.890;2022-07-04T11:05:10;16.20;99.90
25436;DHT22;13363;52.772;-3.890;2022-07-04T11:20:29;16.70;99.90
25436;DHT22;13363;52.772;-3.890;2022-07-04T11:23:12;16.60;99.90
25436;DHT22;13363;52.772;-3.890;2022-07-04T11:25:41;17.10;99.90
25436;DHT22;13363;52.772;-3.890;2022-07-04T11:30:55;16.80;99.90
25436;DHT22;13363;52.772;-3.890;2022-07-04T11:33:28;16.80;99.90
25436;DHT22;13363;52.772;-3.890;2022-07-04T11:36:08;16.80;99.90
25436;DHT22;13363;52.772;-3.890;2022-07-04T11:38:45;16.50;99.90
25436;DHT22;13363;52.772;-3.890;2022-07-04T11:41:11;16.20;99.90
25436;DHT22;13363;52.772;-3.890;2022-07-04T11:43:55;16.30;99.90
25436;DHT22;13363;52.772;-3.890;2022-07-04T11:46:39;16.20;99.90
25436;DHT22;13363;52.772;-3.890;2022-07-04T11:49:10;16.20;99.90
25436;DHT22;13363;52.772;-3.890;2022-07-04T11:51:42;16.30;99.90
25436;DHT22;13363;52.772;-3.890;2022-07-04T11:54:07;16.10;99.90
25436;DHT22;13363;52.772;-3.890;2022-07-04T11:56:33;16.00;99.90
25436;DHT22;13363;52.772;-3.890;2022-07-04T11:59:14;16.00;99.90
25436;DHT22;13363;52.772;-3.890;2022-07-04T12:01:44;16.10;99.90
25436;DHT22;13363;52.772;-3.890;2022-07-04T12:04:17;16.20;99.90
25436;DHT22;13363;52.772;-3.890;2022-07-04T12:06:46;16.40;99.90
25436;DHT22;13363;52.772;-3.890;2022-07-04T12:09:13;16.60;99.90
25436;DHT22;13363;52.772;-3.890;2022-07-04T12:11:58;16.50;99.90
25436;DHT22;13363;52.772;-3.890;2022-07-04T12:14:26;16.30;99.90
25436;DHT22;13363;52.772;-3.890;2022-07-04T12:17:20;16.10;99.90
25436;DHT22;13363;52.772;-3.890;2022-07-04T12:19:51;16.30;99.90
25436;DHT22;13363;52.772;-3.890;2022-07-04T12:22:57;16.60;99.90
25436;DHT22;13363;52.772;-3.890;2022-07-04T12:25:28;16.70;99.90
25436;DHT22;13363;52.772;-3.890;2022-07-04T12:28:03;16.50;99.90
25436;DHT22;13363;52.772;-3.890;2022-07-04T12:30:38;16.40;99.90
25436;DHT22;13363;52.772;-3.890;2022-07-04T12:33:06;16.30;99.90
25436;DHT22;13363;52.772;-3.890;2022-07-04T12:38:34;16.60;99.90
25436;DHT22;13363;52.772;-3.890;2022-07-04T12:46:06;16.40;99.90
25436;DHT22;13363;52.772;-3.890;2022-07-04T12:48:32;16.30;99.90
25436;DHT22;13363;52.772;-3.890;2022-07-04T12:53:39;15.50;99.90
25436;DHT22;13363;52.772;-3.890;2022-07-04T12:56:06;15.50;99.90
25436;DHT22;13363;52.772;-3.890;2022-07-04T12:58:32;15.50;99.90
25436;DHT22;13363;52.772;-3.890;2022-07-04T13:00:58;15.50;99.90
25436;DHT22;13363;52.772;-3.890;2022-07-04T13:03:24;15.90;99.90
25436;DHT22;13363;52.772;-3.890;2022-07-04T13:05:50;16.20;99.90
25436;DHT22;13363;52.772;-3.890;2022-07-04T13:08:16;16.50;99.90
25436;DHT22;13363;52.772;-3.890;2022-07-04T13:10:42;16.80;99.90
25436;DHT22;13363;52.772;-3.890;2022-07-04T13:13:08;16.70;99.90
25436;DHT22;13363;52.772;-3.890;2022-07-04T13:15:34;16.60;99.90
25436;DHT22;13363;52.772;-3.890;2022-07-04T13:18:00;16.60;99.90
25436;DHT22;13363;52.772;-3.890;2022-07-04T13:20:26;16.70;99.90
25436;DHT22;13363;52.772;-3.890;2022-07-04T13:22:52;16.60;99.90
25436;DHT22;13363;52.772;-3.890;2022-07-04T13:25:18;16.90;99.90
25436;DHT22;13363;52.772;-3.890;2022-07-04T13:27:44;16.80;99.90
25436;DHT22;13363;52.772;-3.890;2022-07-04T13:30:11;16.70;99.90
25436;DHT22;13363;52.772;-3.890;2022-07-04T13:32:37;16.60;99.90
25436;DHT22;13363;52.772;-3.890;2022-07-04T13:35:04;16.60;99.90
25436;DHT22;13363;52.772;-3.890;2022-07-04T13:40:52;16.60;99.90
25436;DHT22;13363;52.772;-3.890;2022-07-04T13:43:18;16.60;99.90
25436;DHT22;13363;52.772;-3.890;2022-07-04T13:45:44;16.50;99.90
25436;DHT22;13363;52.772;-3.890;2022-07-04T13:48:12;16.60;99.90
25436;DHT22;13363;52.772;-3.890;2022-07-04T13:50:38;16.50;99.90
25436;DHT22;13363;52.772;-3.890;2022-07-04T13:53:05;16.60;99.90
25436;DHT22;13363;52.772;-3.890;2022-07-04T13:55:31;16.80;99.90
25436;DHT22;13363;52.772;-3.890;2022-07-04T13:57:57;16.90;99.90
25436;DHT22;13363;52.772;-3.890;2022-07-04T14:00:28;16.90;99.90
25436;DHT22;13363;52.772;-3.890;2022-07-04T14:02:54;17.00;99.90
25436;DHT22;13363;52.772;-3.890;2022-07-04T14:05:21;16.90;99.90
25436;DHT22;13363;52.772;-3.890;2022-07-04T14:07:47;16.70;99.90
25436;DHT22;13363;52.772;-3.890;2022-07-04T14:10:13;16.80;99.90
25436;DHT22;13363;52.772;-3.890;2022-07-04T14:12:40;17.00;99.90
25436;DHT22;13363;52.772;-3.890;2022-07-04T14:15:06;17.10;99.90
25436;DHT22;13363;52.772;-3.890;2022-07-04T14:17:33;17.00;99.90
25436;DHT22;13363;52.772;-3.890;2022-07-04T14:19:59;16.80;99.90
25436;DHT22;13363;52.772;-3.890;2022-07-04T14:22:25;16.90;99.90
25436;DHT22;13363;52.772;-3.890;2022-07-04T14:24:51;17.20;99.90
25436;DHT22;13363;52.772;-3.890;2022-07-04T14:27:17;17.60;99.90
25436;DHT22;13363;52.772;-3.890;2022-07-04T14:29:44;17.50;99.90
25436;DHT22;13363;52.772;-3.890;2022-07-04T14:32:10;17.00;99.90
25436;DHT22;13363;52.772;-3.890;2022-07-04T14:34:36;16.80;99.90
25436;DHT22;13363;52.772;-3.890;2022-07-04T14:37:02;16.90;99.90
25436;DHT22;13363;52.772;-3.890;2022-07-04T14:39:28;16.90;99.90
25436;DHT22;13363;52.772;-3.890;2022-07-04T14:41:54;16.70;99.90
25436;DHT22;13363;52.772;-3.890;2022-07-04T14:44:20;16.50;99.90
25436;DHT22;13363;52.772;-3.890;2022-07-04T14:46:46;16.50;99.90
25436;DHT22;13363;52.772;-3.890;2022-07-04T14:49:11;16.60;99.90
25436;DHT22;13363;52.772;-3.890;2022-07-04T14:51:38;16.70;99.90
25436;DHT22;13363;52.772;-3.890;2022-07-04T14:54:09;16.60;99.90
25436;DHT22;13363;52.772;-3.890;2022-07-04T14:56:36;16.70;99.90
25436;DHT22;13363;52.772;-3.890;2022-07-04T14:59:03;16.70;99.90
25436;DHT22;13363;52.772;-3.890;2022-07-04T15:01:30;17.00;99.90
25436;DHT22;13363;52.772;-3.890;2022-07-04T15:03:56;17.10;99.90
25436;DHT22;13363;52.772;-3.890;2022-07-04T15:06:22;17.10;99.90
25436;DHT22;13363;52.772;-3.890;2022-07-04T15:08:48;16.90;99.90
25436;DHT22;13363;52.772;-3.890;2022-07-04T15:11:14;16.80;99.90
25436;DHT22;13363;52.772;-3.890;2022-07-04T15:13:40;17.10;99.90
25436;DHT22;13363;52.772;-3.890;2022-07-04T15:16:06;17.20;99.90
25436;DHT22;13363;52.772;-3.890;2022-07-04T15:18:34;17.10;99.90
25436;DHT22;13363;52.772;-3.890;2022-07-04T15:21:00;17.50;99.90
25436;DHT22;13363;52.772;-3.890;2022-07-04T15:23:44;17.60;99.90
25436;DHT22;13363;52.772;-3.890;2022-07-04T15:26:28;17.40;99.90
25436;DHT22;13363;52.772;-3.890;2022-07-04T15:28:54;17.30;99.90
25436;DHT22;13363;52.772;-3.890;2022-07-04T15:31:20;17.50;99.90
25436;DHT22;13363;52.772;-3.890;2022-07-04T15:33:46;17.20;99.90
25436;DHT22;13363;52.772;-3.890;2022-07-04T15:36:12;17.00;99.90
25436;DHT22;13363;52.772;-3.890;2022-07-04T15:38:37;16.80;99.90
25436;DHT22;13363;52.772;-3.890;2022-07-04T15:41:03;16.90;99.90
25436;DHT22;13363;52.772;-3.890;2022-07-04T15:43:29;17.00;99.90
25436;DHT22;13363;52.772;-3.890;2022-07-04T15:45:56;17.00;99.90
25436;DHT22;13363;52.772;-3.890;2022-07-04T15:48:22;16.80;99.90
25436;DHT22;13363;52.772;-3.890;2022-07-04T15:50:48;16.80;99.90
25436;DHT22;13363;52.772;-3.890;2022-07-04T15:53:14;16.70;99.90
25436;DHT22;13363;52.772;-3.890;2022-07-04T15:55:40;16.60;99.90
25436;DHT22;13363;52.772;-3.890;2022-07-04T15:58:06;16.70;99.90
25436;DHT22;13363;52.772;-3.890;2022-07-04T16:00:32;16.80;99.90
25436;DHT22;13363;52.772;-3.890;2022-07-04T16:02:58;16.80;99.90
25436;DHT22;13363;52.772;-3.890;2022-07-04T16:05:25;16.80;99.90